createdAt,value
2017-09-14T00:00:34.931Z,997.23
2017-09-14T00:01:34.929Z,997.20
2017-09-14T00:02:34.928Z,997.17
2017-09-14T00:03:34.927Z,997.26
2017-09-14T00:04:34.918Z,997.17
2017-09-14T00:05:34.916Z,997.21
2017-09-14T00:06:34.918Z,997.24
2017-09-14T00:07:34.911Z,997.18
2017-09-14T00:08:34.908Z,997.24
2017-09-14T00:09:34.906Z,997.23
2017-09-14T00:10:34.903Z,997.21
2017-09-14T00:11:34.900Z,997.18
2017-09-14T00:12:34.901Z,997.15
2017-09-14T00:13:34.930Z,997.19
2017-09-14T00:14:34.897Z,997.15
2017-09-14T00:15:34.894Z,997.13
2017-09-14T00:16:34.887Z,997.15
2017-09-14T00:17:34.884Z,997.14
2017-09-14T00:18:34.882Z,997.12
2017-09-14T00:19:34.879Z,997.10
2017-09-14T00:20:34.881Z,997.10
2017-09-14T00:21:34.877Z,997.06
2017-09-14T00:22:34.875Z,997.03
2017-09-14T00:23:34.876Z,996.99
2017-09-14T00:24:34.869Z,996.99
2017-09-14T00:25:34.867Z,997.04
2017-09-14T00:26:34.865Z,996.95
2017-09-14T00:27:34.862Z,997.04
2017-09-14T00:28:34.855Z,996.93
2017-09-14T00:29:34.853Z,996.93
2017-09-14T00:30:34.850Z,996.93
2017-09-14T00:31:34.848Z,996.96
2017-09-14T00:32:34.844Z,997.02
2017-09-14T00:33:34.840Z,996.92
2017-09-14T00:34:34.839Z,996.87
2017-09-14T00:35:34.834Z,996.88
2017-09-14T00:36:34.837Z,996.86
2017-09-14T00:37:34.833Z,996.84
2017-09-14T00:38:34.832Z,996.86
2017-09-14T00:39:34.827Z,996.86
2017-09-14T00:40:34.825Z,996.83
2017-09-14T00:41:34.822Z,996.84
2017-09-14T00:42:34.819Z,996.85
2017-09-14T00:43:34.815Z,996.79
2017-09-14T00:44:34.807Z,996.78
2017-09-14T00:45:34.805Z,996.76
2017-09-14T00:46:34.802Z,996.81
2017-09-14T00:47:34.800Z,996.83
2017-09-14T00:48:34.798Z,996.80
2017-09-14T00:49:34.793Z,996.79
2017-09-14T00:50:34.791Z,996.78
2017-09-14T00:51:34.785Z,996.78
2017-09-14T00:52:34.787Z,996.69
2017-09-14T00:53:34.786Z,996.77
2017-09-14T00:54:34.782Z,996.78
2017-09-14T00:55:34.779Z,996.74
2017-09-14T00:56:34.775Z,996.76
2017-09-14T00:57:34.771Z,996.73
2017-09-14T00:58:34.770Z,996.74
2017-09-14T00:59:34.765Z,996.65
2017-09-14T01:00:34.759Z,996.68
2017-09-14T01:01:34.756Z,996.68
2017-09-14T01:02:34.752Z,996.66
2017-09-14T01:03:34.749Z,996.61
2017-09-14T01:04:34.745Z,996.64
2017-09-14T01:05:34.743Z,996.64
2017-09-14T01:06:34.739Z,996.61
2017-09-14T01:07:34.736Z,996.65
2017-09-14T01:08:34.737Z,996.58
2017-09-14T01:09:34.739Z,996.61
2017-09-14T01:10:34.732Z,996.54
2017-09-14T01:11:34.728Z,996.55
2017-09-14T01:12:34.725Z,996.57
2017-09-14T01:13:34.723Z,996.59
2017-09-14T01:14:34.720Z,996.51
2017-09-14T01:15:34.714Z,996.51
2017-09-14T01:16:34.709Z,996.52
2017-09-14T01:17:34.704Z,996.57
2017-09-14T01:18:34.702Z,996.56
2017-09-14T01:19:34.698Z,996.49
2017-09-14T01:20:34.699Z,996.48
2017-09-14T01:21:34.697Z,996.46
2017-09-14T01:22:34.693Z,996.52
2017-09-14T01:23:34.689Z,996.44
2017-09-14T01:24:34.682Z,996.47
2017-09-14T01:25:34.680Z,996.47
2017-09-14T01:26:34.679Z,996.46
2017-09-14T01:27:34.675Z,996.51
2017-09-14T01:28:34.668Z,996.55
2017-09-14T01:29:34.666Z,996.62
2017-09-14T01:30:34.663Z,996.58
2017-09-14T01:31:34.658Z,996.63
2017-09-14T01:32:34.659Z,996.63
2017-09-14T01:33:34.657Z,996.69
2017-09-14T01:34:34.653Z,996.69
2017-09-14T01:35:34.650Z,996.75
2017-09-14T01:36:34.646Z,996.76
2017-09-14T01:37:34.643Z,996.71
2017-09-14T01:38:34.638Z,996.71
2017-09-14T01:39:34.635Z,996.68
2017-09-14T01:40:34.628Z,996.64
2017-09-14T01:41:34.626Z,996.74
2017-09-14T01:42:34.622Z,996.73
2017-09-14T01:43:34.618Z,996.73
2017-09-14T01:44:34.615Z,996.73
2017-09-14T01:45:34.612Z,996.72
2017-09-14T01:46:34.607Z,996.74
2017-09-14T01:47:34.606Z,996.77
2017-09-14T01:48:34.604Z,996.75
2017-09-14T01:49:34.601Z,996.79
2017-09-14T01:50:34.598Z,996.86
2017-09-14T01:51:34.596Z,996.86
2017-09-14T01:52:34.591Z,996.80
2017-09-14T01:53:34.588Z,996.82
2017-09-14T01:54:34.586Z,996.78
2017-09-14T01:55:34.582Z,996.86
2017-09-14T01:56:34.573Z,996.84
2017-09-14T01:57:34.570Z,996.89
2017-09-14T01:58:34.567Z,996.87
2017-09-14T01:59:34.563Z,996.92
2017-09-14T02:00:34.560Z,996.92
2017-09-14T02:01:34.562Z,996.92
2017-09-14T02:02:34.553Z,996.87
2017-09-14T02:03:34.549Z,996.91
2017-09-14T02:04:34.550Z,996.89
2017-09-14T02:05:34.547Z,996.87
2017-09-14T02:06:34.543Z,996.89
2017-09-14T02:07:34.538Z,996.88
2017-09-14T02:08:34.536Z,996.90
2017-09-14T02:09:34.534Z,996.90
2017-09-14T02:10:34.528Z,996.87
2017-09-14T02:11:34.524Z,996.85
2017-09-14T02:12:34.517Z,996.80
2017-09-14T02:13:34.514Z,996.80
2017-09-14T02:14:34.511Z,996.81
2017-09-14T02:15:34.507Z,996.78
2017-09-14T02:16:34.503Z,996.78
2017-09-14T02:17:34.499Z,996.71
2017-09-14T02:18:34.495Z,996.70
2017-09-14T02:19:34.490Z,996.71
2017-09-14T02:20:34.497Z,996.75
2017-09-14T02:21:34.489Z,996.66
2017-09-14T02:22:34.486Z,996.72
2017-09-14T02:23:34.481Z,996.67
2017-09-14T02:24:34.473Z,996.65
2017-09-14T02:25:34.469Z,996.68
2017-09-14T02:26:34.466Z,996.69
2017-09-14T02:27:34.461Z,996.60
2017-09-14T02:28:34.463Z,996.55
2017-09-14T02:29:34.459Z,996.52
2017-09-14T02:30:34.456Z,996.43
2017-09-14T02:31:34.452Z,996.53
2017-09-14T02:32:34.445Z,996.58
2017-09-14T02:33:34.443Z,996.48
2017-09-14T02:34:34.440Z,996.51
2017-09-14T02:35:34.435Z,996.47
2017-09-14T02:36:34.428Z,996.45
2017-09-14T02:37:34.424Z,996.47
2017-09-14T02:38:34.423Z,996.46
2017-09-14T02:39:34.416Z,996.52
2017-09-14T02:40:34.414Z,996.47
2017-09-14T02:41:34.412Z,996.45
2017-09-14T02:42:34.406Z,996.47
2017-09-14T02:43:34.403Z,996.44
2017-09-14T02:44:34.404Z,996.39
2017-09-14T02:45:34.401Z,996.39
2017-09-14T02:46:34.397Z,996.39
2017-09-14T02:47:34.393Z,996.43
2017-09-14T02:48:34.390Z,996.36
2017-09-14T02:49:34.387Z,996.33
2017-09-14T02:50:34.387Z,996.28
2017-09-14T02:51:34.378Z,996.34
2017-09-14T02:52:34.370Z,996.29
2017-09-14T02:53:34.367Z,996.28
2017-09-14T02:54:34.365Z,996.33
2017-09-14T02:55:34.360Z,996.26
2017-09-14T02:56:34.356Z,996.27
2017-09-14T02:57:34.353Z,996.30
2017-09-14T02:58:34.350Z,996.29
2017-09-14T02:59:34.346Z,996.27
2017-09-14T03:00:34.346Z,996.28
2017-09-14T03:01:34.343Z,996.22
2017-09-14T03:02:34.340Z,996.28
2017-09-14T03:03:34.337Z,996.25
2017-09-14T03:04:34.333Z,996.32
2017-09-14T03:05:34.331Z,996.24
2017-09-14T03:06:34.327Z,996.26
2017-09-14T03:07:34.323Z,996.28
2017-09-14T03:08:34.315Z,996.30
2017-09-14T03:09:34.312Z,996.29
2017-09-14T03:10:34.307Z,996.34
2017-09-14T03:11:34.305Z,996.31
2017-09-14T03:12:34.302Z,996.33
2017-09-14T03:13:34.297Z,996.34
2017-09-14T03:14:34.295Z,996.33
2017-09-14T03:15:34.290Z,996.36
2017-09-14T03:16:34.292Z,996.37
2017-09-14T03:17:34.287Z,996.39
2017-09-14T03:18:34.286Z,996.38
2017-09-14T03:19:34.282Z,996.37
2017-09-14T03:20:34.278Z,996.36
2017-09-14T03:21:34.274Z,996.37
2017-09-14T03:22:34.271Z,996.37
2017-09-14T03:23:34.268Z,996.36
2017-09-14T03:24:34.259Z,996.41
2017-09-14T03:25:34.257Z,996.37
2017-09-14T03:26:34.254Z,996.39
2017-09-14T03:27:34.254Z,996.32
2017-09-14T03:28:34.251Z,996.30
2017-09-14T03:29:34.242Z,996.36
2017-09-14T03:30:34.242Z,996.38
2017-09-14T03:31:34.240Z,996.38
2017-09-14T03:32:34.236Z,996.36
2017-09-14T03:33:34.235Z,996.35
2017-09-14T03:34:34.230Z,996.38
2017-09-14T03:35:34.230Z,996.31
2017-09-14T03:36:34.223Z,996.33
2017-09-14T03:37:34.219Z,996.36
2017-09-14T03:38:34.217Z,996.38
2017-09-14T03:39:34.212Z,996.44
2017-09-14T03:40:34.206Z,996.39
2017-09-14T03:41:34.205Z,996.44
2017-09-14T03:42:34.198Z,996.40
2017-09-14T03:43:34.196Z,996.38
2017-09-14T03:44:34.192Z,996.42
2017-09-14T03:45:34.189Z,996.41
2017-09-14T03:46:34.185Z,996.39
2017-09-14T03:47:34.187Z,996.34
2017-09-14T03:48:34.183Z,996.35
2017-09-14T03:49:34.180Z,996.29
2017-09-14T03:50:34.176Z,996.29
2017-09-14T03:51:34.171Z,996.27
2017-09-14T03:52:34.167Z,996.26
2017-09-14T03:53:34.165Z,996.26
2017-09-14T03:54:34.163Z,996.24
2017-09-14T03:55:34.160Z,996.23
2017-09-14T03:56:34.151Z,996.20
2017-09-14T03:57:34.152Z,996.11
2017-09-14T03:58:34.143Z,996.13
2017-09-14T03:59:34.139Z,996.12
2017-09-14T04:00:34.136Z,996.15
2017-09-14T04:01:34.134Z,996.05
2017-09-14T04:02:34.130Z,996.05
2017-09-14T04:03:34.127Z,996.00
2017-09-14T04:04:34.127Z,995.99
2017-09-14T04:05:34.124Z,996.04
2017-09-14T04:06:34.120Z,996.05
2017-09-14T04:07:34.117Z,995.99
2017-09-14T04:08:34.113Z,996.00
2017-09-14T04:09:34.110Z,996.03
2017-09-14T04:10:34.106Z,996.08
2017-09-14T04:11:34.102Z,996.13
2017-09-14T04:12:34.095Z,996.14
2017-09-14T04:13:34.091Z,996.16
2017-09-14T04:14:34.092Z,996.13
2017-09-14T04:15:34.083Z,996.08
2017-09-14T04:16:34.083Z,996.09
2017-09-14T04:17:34.076Z,996.06
2017-09-14T04:18:34.074Z,996.10
2017-09-14T04:19:34.067Z,996.09
2017-09-14T04:20:34.068Z,996.08
2017-09-14T04:21:34.066Z,996.10
2017-09-14T04:22:34.062Z,996.05
2017-09-14T04:23:34.058Z,995.99
2017-09-14T04:24:34.056Z,996.12
2017-09-14T04:25:34.049Z,996.06
2017-09-14T04:26:34.046Z,996.03
2017-09-14T04:27:34.092Z,996.02
2017-09-14T04:28:34.035Z,996.05
2017-09-14T04:29:34.032Z,996.00
2017-09-14T04:30:34.028Z,996.02
2017-09-14T04:31:34.024Z,996.01
2017-09-14T04:32:34.026Z,995.97
2017-09-14T04:33:34.020Z,996.02
2017-09-14T04:34:34.017Z,995.99
2017-09-14T04:35:34.012Z,995.95
2017-09-14T04:36:34.005Z,995.99
2017-09-14T04:37:34.001Z,995.98
2017-09-14T04:38:33.999Z,995.94
2017-09-14T04:39:33.994Z,995.98
2017-09-14T04:40:33.990Z,996.00
2017-09-14T04:41:33.986Z,995.98
2017-09-14T04:42:33.984Z,996.02
2017-09-14T04:43:33.980Z,995.98
2017-09-14T04:44:33.981Z,996.02
2017-09-14T04:45:33.978Z,996.02
2017-09-14T04:46:33.973Z,996.04
2017-09-14T04:47:33.969Z,996.01
2017-09-14T04:48:33.965Z,996.05
2017-09-14T04:49:33.962Z,996.04
2017-09-14T04:50:33.959Z,996.03
2017-09-14T04:51:33.954Z,996.00
2017-09-14T04:52:33.946Z,996.07
2017-09-14T04:53:33.942Z,996.03
2017-09-14T04:54:33.939Z,995.95
2017-09-14T04:55:33.936Z,995.90
2017-09-14T04:56:33.935Z,995.88
2017-09-14T04:57:33.929Z,995.92
2017-09-14T04:58:33.926Z,995.89
2017-09-14T04:59:33.921Z,995.84
2017-09-14T05:00:33.922Z,995.78
2017-09-14T05:01:33.918Z,995.75
2017-09-14T05:02:33.916Z,995.75
2017-09-14T05:03:33.911Z,995.70
2017-09-14T05:04:33.906Z,995.65
2017-09-14T05:05:33.905Z,995.61
2017-09-14T05:06:33.901Z,995.59
2017-09-14T05:07:33.897Z,995.55
2017-09-14T05:08:33.890Z,995.50
2017-09-14T05:09:33.886Z,995.48
2017-09-14T05:10:33.882Z,995.45
2017-09-14T05:11:33.878Z,995.48
2017-09-14T05:12:33.876Z,995.45
2017-09-14T05:13:33.871Z,995.42
2017-09-14T05:14:33.869Z,995.40
2017-09-14T05:15:33.863Z,995.38
2017-09-14T05:16:33.865Z,995.34
2017-09-14T05:17:33.862Z,995.34
2017-09-14T05:18:33.861Z,995.37
2017-09-14T05:19:33.855Z,995.32
2017-09-14T05:20:33.851Z,995.38
2017-09-14T05:21:33.848Z,995.39
2017-09-14T05:22:33.844Z,995.49
2017-09-14T05:23:33.841Z,995.46
2017-09-14T05:24:33.832Z,995.62
2017-09-14T05:25:33.830Z,995.66
2017-09-14T05:26:33.828Z,995.69
2017-09-14T05:27:33.824Z,995.68
2017-09-14T05:28:33.820Z,995.75
2017-09-14T05:29:33.816Z,995.82
2017-09-14T05:30:33.813Z,995.80
2017-09-14T05:31:33.810Z,995.82
2017-09-14T05:32:33.810Z,995.82
2017-09-14T05:33:33.810Z,995.80
2017-09-14T05:34:33.802Z,995.87
2017-09-14T05:35:33.800Z,995.86
2017-09-14T05:36:33.791Z,995.94
2017-09-14T05:37:33.816Z,995.89
2017-09-14T05:38:33.785Z,995.92
2017-09-14T05:39:33.781Z,995.88
2017-09-14T05:40:33.784Z,995.95
2017-09-14T05:41:33.779Z,995.98
2017-09-14T05:42:33.776Z,996.01
2017-09-14T05:43:33.772Z,995.96
2017-09-14T05:44:33.768Z,995.97
2017-09-14T05:45:33.765Z,995.93
2017-09-14T05:46:33.763Z,995.90
2017-09-14T05:47:33.759Z,995.90
2017-09-14T05:48:33.752Z,995.91
2017-09-14T05:49:33.748Z,995.94
2017-09-14T05:50:33.746Z,995.98
2017-09-14T05:51:33.741Z,996.01
2017-09-14T05:52:33.741Z,995.98
2017-09-14T05:53:33.736Z,995.96
2017-09-14T05:54:33.733Z,996.02
2017-09-14T05:55:33.728Z,996.01
2017-09-14T05:56:33.729Z,995.98
2017-09-14T05:57:33.727Z,995.93
2017-09-14T05:58:33.725Z,995.92
2017-09-14T05:59:33.722Z,995.92
2017-09-14T06:00:33.718Z,995.95
2017-09-14T06:01:33.714Z,995.91
2017-09-14T06:02:33.718Z,995.92
2017-09-14T06:03:33.708Z,995.87
2017-09-14T06:04:33.701Z,995.83
2017-09-14T06:05:33.698Z,995.80
2017-09-14T06:06:33.694Z,995.73
2017-09-14T06:07:33.692Z,995.67
2017-09-14T06:08:33.688Z,995.72
2017-09-14T06:09:33.684Z,995.76
2017-09-14T06:10:33.683Z,995.87
2017-09-14T06:11:33.679Z,996.01
2017-09-14T06:12:33.680Z,996.09
2017-09-14T06:13:33.677Z,996.13
2017-09-14T06:14:33.676Z,996.14
2017-09-14T06:15:33.672Z,996.10
2017-09-14T06:16:33.668Z,996.06
2017-09-14T06:17:33.665Z,996.00
2017-09-14T06:18:33.662Z,996.05
2017-09-14T06:19:33.658Z,995.93
2017-09-14T06:20:33.652Z,995.87
2017-09-14T06:21:33.649Z,995.79
2017-09-14T06:22:33.647Z,995.72
2017-09-14T06:23:33.643Z,995.73
2017-09-14T06:24:33.641Z,995.69
2017-09-14T06:25:33.637Z,995.76
2017-09-14T06:26:33.634Z,995.80
2017-09-14T06:27:33.630Z,995.83
2017-09-14T06:28:33.633Z,995.88
2017-09-14T06:29:33.630Z,995.96
2017-09-14T06:30:33.626Z,996.00
2017-09-14T06:31:33.622Z,995.98
2017-09-14T06:32:33.620Z,995.99
2017-09-14T06:33:33.618Z,995.96
2017-09-14T06:34:33.623Z,995.94
2017-09-14T06:35:33.610Z,995.90
2017-09-14T06:36:33.605Z,995.89
2017-09-14T06:37:33.602Z,995.84
2017-09-14T06:38:33.600Z,995.87
2017-09-14T06:39:33.594Z,995.85
2017-09-14T06:40:33.597Z,995.70
2017-09-14T06:41:33.595Z,995.67
2017-09-14T06:42:33.591Z,995.67
2017-09-14T06:43:33.589Z,995.73
2017-09-14T06:44:33.583Z,995.71
2017-09-14T06:45:33.580Z,995.79
2017-09-14T06:46:33.578Z,995.86
2017-09-14T06:47:33.575Z,995.85
2017-09-14T06:48:33.571Z,995.92
2017-09-14T06:49:33.571Z,995.95
2017-09-14T06:50:33.568Z,995.82
2017-09-14T06:51:33.566Z,995.79
2017-09-14T06:52:33.568Z,995.74
2017-09-14T06:53:33.565Z,995.73
2017-09-14T06:54:33.566Z,995.83
2017-09-14T06:55:33.560Z,995.82
2017-09-14T06:56:33.559Z,995.90
2017-09-14T06:57:33.557Z,995.99
2017-09-14T06:58:33.556Z,995.99
2017-09-14T06:59:33.553Z,995.98
2017-09-14T07:00:33.547Z,995.93
2017-09-14T07:01:33.546Z,995.99
2017-09-14T07:02:33.544Z,995.98
2017-09-14T07:03:33.548Z,995.98
2017-09-14T07:04:33.540Z,996.03
2017-09-14T07:05:33.539Z,996.01
2017-09-14T07:06:33.538Z,995.99
2017-09-14T07:07:33.534Z,996.06
2017-09-14T07:08:33.537Z,996.11
2017-09-14T07:09:33.536Z,996.06
2017-09-14T07:10:33.536Z,996.08
2017-09-14T07:11:33.531Z,996.11
2017-09-14T07:12:33.539Z,996.15
2017-09-14T07:13:33.530Z,996.18
2017-09-14T07:14:33.528Z,996.16
2017-09-14T07:15:33.524Z,996.18
2017-09-14T07:16:33.520Z,996.19
2017-09-14T07:17:33.518Z,996.24
2017-09-14T07:18:33.516Z,996.20
2017-09-14T07:19:33.514Z,996.20
2017-09-14T07:20:33.512Z,996.25
2017-09-14T07:21:33.510Z,996.33
2017-09-14T07:22:33.507Z,996.29
2017-09-14T07:23:33.504Z,996.37
2017-09-14T07:24:33.507Z,996.31
2017-09-14T07:25:33.506Z,996.36
2017-09-14T07:26:33.503Z,996.34
2017-09-14T07:27:33.501Z,996.38
2017-09-14T07:28:33.499Z,996.34
2017-09-14T07:29:33.496Z,996.43
2017-09-14T07:30:33.495Z,996.34
2017-09-14T07:31:33.491Z,996.34
2017-09-14T07:32:33.486Z,996.39
2017-09-14T07:33:33.483Z,996.34
2017-09-14T07:34:33.482Z,996.45
2017-09-14T07:35:33.478Z,996.49
2017-09-14T07:36:33.476Z,996.47
2017-09-14T07:37:33.476Z,996.47
2017-09-14T07:38:33.473Z,996.51
2017-09-14T07:39:33.471Z,996.49
2017-09-14T07:40:33.472Z,996.50
2017-09-14T07:41:33.470Z,996.53
2017-09-14T07:42:33.469Z,996.52
2017-09-14T07:43:33.466Z,996.57
2017-09-14T07:44:33.458Z,996.52
2017-09-14T07:45:33.460Z,996.50
2017-09-14T07:46:33.455Z,996.54
2017-09-14T07:47:33.453Z,996.52
2017-09-14T07:48:33.456Z,996.49
2017-09-14T07:49:33.456Z,996.57
2017-09-14T07:50:33.453Z,996.47
2017-09-14T07:51:33.450Z,996.58
2017-09-14T07:52:33.448Z,996.62
2017-09-14T07:53:33.446Z,996.61
2017-09-14T07:54:33.445Z,996.59
2017-09-14T07:55:33.443Z,996.68
2017-09-14T07:56:33.436Z,996.61
2017-09-14T07:57:33.435Z,996.61
2017-09-14T07:58:33.433Z,996.69
2017-09-14T07:59:33.445Z,996.60
2017-09-14T08:00:33.430Z,996.61
2017-09-14T08:01:33.428Z,996.66
2017-09-14T08:02:33.426Z,996.70
2017-09-14T08:03:33.423Z,996.70
2017-09-14T08:04:33.426Z,996.65
2017-09-14T08:05:33.426Z,996.70
2017-09-14T08:06:33.422Z,996.74
2017-09-14T08:07:33.420Z,996.76
2017-09-14T08:08:33.419Z,996.82
2017-09-14T08:09:33.417Z,996.89
2017-09-14T08:10:33.420Z,996.86
2017-09-14T08:11:33.413Z,996.76
2017-09-14T08:12:33.408Z,996.78
2017-09-14T08:13:33.407Z,996.76
2017-09-14T08:14:33.406Z,996.76
2017-09-14T08:15:33.407Z,996.77
2017-09-14T08:16:33.403Z,996.77
2017-09-14T08:17:33.404Z,996.80
2017-09-14T08:18:33.401Z,996.77
2017-09-14T08:19:33.397Z,996.83
2017-09-14T08:20:33.402Z,996.81
2017-09-14T08:21:33.400Z,996.85
2017-09-14T08:22:33.399Z,996.90
2017-09-14T08:23:33.399Z,996.99
2017-09-14T08:24:33.396Z,996.97
2017-09-14T08:25:33.395Z,997.02
2017-09-14T08:26:33.396Z,997.10
2017-09-14T08:27:33.392Z,997.16
2017-09-14T08:28:33.387Z,997.12
2017-09-14T08:29:33.387Z,997.07
2017-09-14T08:30:33.390Z,997.08
2017-09-14T08:31:33.384Z,997.06
2017-09-14T08:32:33.383Z,997.14
2017-09-14T08:33:33.383Z,997.21
2017-09-14T08:34:33.381Z,997.15
2017-09-14T08:35:33.380Z,997.03
2017-09-14T08:36:33.385Z,997.02
2017-09-14T08:37:33.383Z,997.18
2017-09-14T08:38:33.383Z,997.18
2017-09-14T08:39:33.381Z,997.35
2017-09-14T08:40:33.380Z,997.21
2017-09-14T08:41:33.380Z,997.25
2017-09-14T08:42:33.380Z,997.20
2017-09-14T08:43:33.400Z,997.24
2017-09-14T08:44:33.373Z,997.23
2017-09-14T08:45:33.372Z,997.19
2017-09-14T08:46:33.381Z,997.28
2017-09-14T08:47:33.372Z,997.34
2017-09-14T08:48:33.373Z,997.25
2017-09-14T08:49:33.373Z,997.30
2017-09-14T08:50:33.372Z,997.27
2017-09-14T08:51:33.371Z,997.45
2017-09-14T08:52:33.366Z,997.50
2017-09-14T08:53:33.366Z,997.52
2017-09-14T08:54:33.366Z,997.45
2017-09-14T08:55:33.364Z,997.63
2017-09-14T08:56:33.390Z,997.31
2017-09-14T08:57:33.363Z,997.58
2017-09-14T08:58:33.363Z,997.61
2017-09-14T08:59:33.363Z,997.95
2017-09-14T09:00:33.369Z,997.51
2017-09-14T09:01:33.365Z,997.46
2017-09-14T09:02:33.368Z,997.51
2017-09-14T09:03:33.372Z,997.52
2017-09-14T09:04:33.367Z,997.85
2017-09-14T09:05:33.367Z,997.76
2017-09-14T09:06:33.370Z,997.88
2017-09-14T09:07:33.369Z,998.19
2017-09-14T09:08:33.366Z,997.79
2017-09-14T09:09:33.369Z,997.85
2017-09-14T09:10:33.370Z,997.93
2017-09-14T09:11:33.372Z,998.22
2017-09-14T09:12:33.375Z,997.94
2017-09-14T09:13:33.378Z,998.16
2017-09-14T09:14:33.382Z,997.80
2017-09-14T09:15:33.386Z,998.10
2017-09-14T09:16:33.395Z,997.79
2017-09-14T09:17:33.398Z,997.91
2017-09-14T09:18:33.404Z,997.94
2017-09-14T09:19:33.409Z,997.81
2017-09-14T09:20:33.414Z,997.88
2017-09-14T09:21:33.418Z,997.82
2017-09-14T09:22:33.425Z,997.78
2017-09-14T09:23:33.429Z,997.79
2017-09-14T09:24:33.429Z,997.69
2017-09-14T09:25:33.436Z,997.65
2017-09-14T09:26:33.441Z,997.61
2017-09-14T09:27:33.447Z,997.58
2017-09-14T09:28:33.455Z,997.49
2017-09-14T09:29:33.455Z,997.52
2017-09-14T09:30:33.461Z,997.49
2017-09-14T09:31:33.466Z,997.47
2017-09-14T09:32:33.474Z,997.45
2017-09-14T09:33:33.480Z,997.49
2017-09-14T09:34:33.484Z,997.51
2017-09-14T09:35:33.486Z,997.49
2017-09-14T09:36:33.489Z,997.49
2017-09-14T09:37:33.495Z,997.59
2017-09-14T09:38:33.499Z,997.64
2017-09-14T09:39:33.500Z,997.65
2017-09-14T09:40:33.500Z,997.68
2017-09-14T09:41:33.502Z,997.66
2017-09-14T09:42:33.505Z,997.87
2017-09-14T09:43:33.507Z,998.01
2017-09-14T09:44:33.510Z,997.96
2017-09-14T09:45:33.512Z,997.95
2017-09-14T09:46:33.513Z,997.96
2017-09-14T09:47:33.513Z,998.09
2017-09-14T09:48:33.522Z,998.14
2017-09-14T09:49:33.522Z,998.17
2017-09-14T09:50:33.524Z,998.09
2017-09-14T09:51:33.522Z,998.03
2017-09-14T09:52:33.519Z,997.90
2017-09-14T09:53:33.521Z,997.93
2017-09-14T09:54:33.543Z,997.96
2017-09-14T09:55:33.518Z,997.92
2017-09-14T09:56:33.523Z,997.94
2017-09-14T09:57:33.524Z,997.99
2017-09-14T09:58:33.530Z,997.96
2017-09-14T09:59:33.522Z,998.04
2017-09-14T10:00:33.522Z,998.05
2017-09-14T10:01:33.521Z,998.05
2017-09-14T10:02:33.522Z,998.06
2017-09-14T10:03:33.521Z,998.07
2017-09-14T10:04:33.516Z,998.14
2017-09-14T10:05:33.514Z,998.16
2017-09-14T10:06:33.515Z,998.23
2017-09-14T10:07:33.512Z,998.30
2017-09-14T10:08:33.522Z,998.25
2017-09-14T10:09:33.511Z,998.12
2017-09-14T10:10:33.511Z,998.10
2017-09-14T10:11:33.507Z,998.24
2017-09-14T10:12:33.510Z,998.31
2017-09-14T10:13:33.513Z,998.43
2017-09-14T10:14:33.510Z,998.49
2017-09-14T10:15:33.507Z,998.77
2017-09-14T10:16:33.506Z,998.65
2017-09-14T10:17:33.506Z,998.65
2017-09-14T10:18:33.505Z,998.69
2017-09-14T10:19:33.505Z,998.66
2017-09-14T10:20:33.502Z,998.68
2017-09-14T10:21:33.503Z,998.71
2017-09-14T10:22:33.504Z,998.69
2017-09-14T10:23:33.507Z,998.71
2017-09-14T10:24:33.536Z,998.64
2017-09-14T10:25:33.514Z,998.64
2017-09-14T10:26:33.518Z,998.66
2017-09-14T10:27:33.521Z,998.73
2017-09-14T10:28:33.530Z,998.62
2017-09-14T10:29:33.539Z,998.53
2017-09-14T10:30:33.542Z,998.59
2017-09-14T10:31:33.546Z,998.72
2017-09-14T10:32:33.551Z,998.61
2017-09-14T10:33:33.563Z,998.66
2017-09-14T10:34:33.562Z,998.64
2017-09-14T10:35:33.567Z,998.73
2017-09-14T10:36:33.569Z,998.63
2017-09-14T10:37:33.573Z,998.66
2017-09-14T10:38:33.579Z,998.61
2017-09-14T10:39:33.583Z,998.76
2017-09-14T10:40:33.588Z,998.98
2017-09-14T10:41:33.593Z,998.96
2017-09-14T10:42:33.597Z,999.13
2017-09-14T10:43:33.603Z,998.89
2017-09-14T10:44:33.612Z,998.80
2017-09-14T10:45:33.619Z,998.78
2017-09-14T10:46:33.621Z,998.91
2017-09-14T10:47:33.628Z,998.85
2017-09-14T10:48:33.636Z,998.80
2017-09-14T10:49:33.640Z,998.65
2017-09-14T10:50:33.645Z,998.85
2017-09-14T10:51:33.649Z,998.74
2017-09-14T10:52:33.650Z,998.96
2017-09-14T10:53:33.660Z,999.15
2017-09-14T10:54:33.662Z,999.09
2017-09-14T10:55:33.666Z,998.84
2017-09-14T10:56:33.676Z,998.81
2017-09-14T10:57:33.682Z,999.09
2017-09-14T10:58:33.687Z,999.10
2017-09-14T10:59:33.692Z,998.88
2017-09-14T11:00:33.694Z,999.02
2017-09-14T11:01:33.701Z,998.86
2017-09-14T11:02:33.706Z,998.97
2017-09-14T11:03:33.712Z,998.88
2017-09-14T11:04:33.716Z,998.91
2017-09-14T11:05:33.724Z,998.94
2017-09-14T11:06:33.736Z,999.27
2017-09-14T11:07:33.736Z,999.18
2017-09-14T11:08:33.745Z,999.07
2017-09-14T11:09:33.752Z,999.08
2017-09-14T11:10:33.757Z,999.00
2017-09-14T11:11:33.763Z,998.91
2017-09-14T11:12:33.770Z,998.99
2017-09-14T11:13:33.777Z,998.92
2017-09-14T11:14:33.781Z,998.90
2017-09-14T11:15:33.786Z,998.87
2017-09-14T11:16:33.788Z,998.87
2017-09-14T11:17:33.792Z,998.90
2017-09-14T11:18:33.799Z,998.93
2017-09-14T11:19:33.801Z,998.95
2017-09-14T11:20:33.807Z,998.89
2017-09-14T11:21:33.812Z,998.97
2017-09-14T11:22:33.815Z,998.98
2017-09-14T11:23:33.820Z,999.05
2017-09-14T11:24:33.828Z,999.10
2017-09-14T11:25:33.831Z,999.26
2017-09-14T11:26:33.901Z,999.32
2017-09-14T11:27:33.909Z,999.44
2017-09-14T11:28:33.849Z,999.33
2017-09-14T11:29:33.853Z,999.36
2017-09-14T11:30:33.859Z,999.34
2017-09-14T11:31:33.856Z,999.27
2017-09-14T11:32:33.852Z,999.22
2017-09-14T11:33:33.847Z,999.22
2017-09-14T11:34:33.850Z,999.12
2017-09-14T11:35:33.850Z,999.19
2017-09-14T11:36:33.856Z,999.13
2017-09-14T11:37:33.853Z,999.10
2017-09-14T11:38:33.853Z,999.12
2017-09-14T11:39:33.855Z,999.12
2017-09-14T11:40:33.859Z,999.14
2017-09-14T11:41:33.859Z,999.18
2017-09-14T11:42:33.860Z,999.23
2017-09-14T11:43:33.858Z,999.31
2017-09-14T11:44:33.859Z,999.27
2017-09-14T11:45:33.860Z,999.32
2017-09-14T11:46:33.859Z,999.25
2017-09-14T11:47:33.861Z,999.25
2017-09-14T11:48:33.854Z,999.21
2017-09-14T11:49:33.855Z,999.16
2017-09-14T11:50:33.855Z,999.21
2017-09-14T11:51:33.855Z,999.15
2017-09-14T11:52:33.856Z,999.08
2017-09-14T11:53:33.857Z,999.04
2017-09-14T11:54:33.857Z,999.11
2017-09-14T11:55:33.857Z,999.09
2017-09-14T11:56:33.860Z,999.06
2017-09-14T11:57:33.863Z,999.02
2017-09-14T11:58:33.863Z,999.02
2017-09-14T11:59:33.863Z,999.01
2017-09-14T12:00:33.864Z,999.12
2017-09-14T12:01:33.865Z,999.06
2017-09-14T12:02:33.867Z,999.06
2017-09-14T12:03:33.872Z,999.01
2017-09-14T12:04:33.863Z,999.14
2017-09-14T12:05:33.864Z,999.17
2017-09-14T12:06:33.864Z,999.28
2017-09-14T12:07:33.863Z,999.31
2017-09-14T12:08:33.864Z,999.27
2017-09-14T12:09:33.865Z,999.26
2017-09-14T12:10:33.867Z,999.27
2017-09-14T12:11:33.866Z,999.37
2017-09-14T12:12:33.870Z,999.48
2017-09-14T12:13:33.870Z,999.55
2017-09-14T12:14:33.870Z,999.49
2017-09-14T12:15:33.871Z,999.54
2017-09-14T12:16:33.869Z,999.51
2017-09-14T12:17:33.870Z,999.47
2017-09-14T12:18:33.871Z,999.53
2017-09-14T12:19:33.870Z,999.51
2017-09-14T12:20:33.869Z,999.51
2017-09-14T12:21:33.865Z,999.55
2017-09-14T12:22:33.866Z,999.43
2017-09-14T12:23:33.868Z,999.49
2017-09-14T12:24:33.866Z,999.49
2017-09-14T12:25:33.865Z,999.46
2017-09-14T12:26:33.868Z,999.52
2017-09-14T12:27:33.864Z,999.56
2017-09-14T12:28:33.869Z,999.53